createdAt,value
2022-08-05T00:00:03.663Z,3.30
2022-08-05T00:01:25.225Z,3.20
2022-08-05T00:02:07.765Z,2.80
2022-08-05T00:03:04.635Z,2.80
2022-08-05T00:04:03.667Z,3.10
2022-08-05T00:05:05.916Z,2.50
2022-08-05T00:06:22.098Z,2.80
2022-08-05T00:07:27.019Z,2.90
2022-08-05T00:08:04.741Z,2.80
2022-08-05T00:09:03.576Z,2.80
2022-08-05T00:10:03.563Z,2.80
2022-08-05T00:11:03.588Z,2.50
2022-08-05T00:12:03.559Z,2.90
2022-08-05T00:13:03.543Z,2.50
2022-08-05T00:14:12.887Z,2.80
2022-08-05T00:15:54.404Z,2.60
2022-08-05T00:16:04.517Z,3.00
2022-08-05T00:17:03.507Z,2.70
2022-08-05T00:18:03.503Z,3.00
2022-08-05T00:19:03.530Z,2.70
2022-08-05T00:20:03.480Z,2.80
2022-08-05T00:21:03.450Z,2.40
2022-08-05T00:22:03.448Z,3.00
2022-08-05T00:23:12.917Z,2.70
2022-08-05T00:24:09.846Z,2.70
2022-08-05T00:25:03.451Z,3.20
2022-08-05T00:26:03.429Z,3.50
2022-08-05T00:27:04.695Z,2.70
2022-08-05T00:28:04.389Z,2.20
2022-08-05T00:29:03.386Z,2.60
2022-08-05T00:30:35.293Z,2.80
2022-08-05T00:31:04.619Z,2.70
2022-08-05T00:32:13.476Z,3.00
2022-08-05T00:33:04.339Z,2.90
2022-08-05T00:34:53.953Z,3.10
2022-08-05T00:35:07.621Z,3.30
2022-08-05T00:36:15.072Z,2.70
2022-08-05T00:37:09.928Z,3.00
2022-08-05T00:38:04.284Z,2.90
2022-08-05T00:39:04.335Z,3.10
2022-08-05T00:40:03.298Z,2.40
2022-08-05T00:41:03.277Z,2.80
2022-08-05T00:42:03.274Z,2.90
2022-08-05T00:43:07.420Z,2.80
2022-08-05T00:44:03.243Z,2.60
2022-08-05T00:45:03.214Z,2.70
2022-08-05T00:46:03.220Z,3.20
2022-08-05T00:47:04.144Z,2.80
2022-08-05T00:48:05.574Z,2.90
2022-08-05T00:49:03.182Z,2.80
2022-08-05T00:50:03.178Z,2.90
2022-08-05T00:51:08.785Z,3.00
2022-08-05T00:52:04.180Z,2.70
2022-08-05T00:53:03.142Z,2.80
2022-08-05T00:54:04.142Z,2.60
2022-08-05T00:55:03.130Z,2.90
2022-08-05T00:56:03.121Z,3.00
2022-08-05T00:57:03.121Z,2.30
2022-08-05T00:58:03.088Z,2.80
2022-08-05T00:59:03.093Z,2.50
2022-08-05T01:00:03.075Z,3.00
2022-08-05T01:01:03.140Z,2.90
2022-08-05T01:02:03.049Z,2.80
2022-08-05T01:03:03.060Z,3.20
2022-08-05T01:04:03.030Z,3.30
2022-08-05T01:05:03.022Z,2.80
2022-08-05T01:06:05.363Z,3.20
2022-08-05T01:07:05.173Z,3.10
2022-08-05T01:08:41.504Z,2.80
2022-08-05T01:09:03.977Z,3.30
2022-08-05T01:10:02.982Z,3.10
2022-08-05T01:11:03.989Z,3.20
2022-08-05T01:12:18.108Z,3.20
2022-08-05T01:13:12.852Z,3.20
2022-08-05T01:14:03.940Z,3.10
2022-08-05T01:15:04.065Z,3.40
2022-08-05T01:16:02.950Z,3.40
2022-08-05T01:17:02.911Z,2.80
2022-08-05T01:18:02.895Z,3.10
2022-08-05T01:19:02.921Z,3.40
2022-08-05T01:20:03.707Z,3.00
2022-08-05T01:21:03.896Z,2.80
2022-08-05T01:22:03.854Z,2.90
2022-08-05T01:23:14.399Z,2.80
2022-08-05T01:24:14.155Z,3.00
2022-08-05T01:25:04.491Z,3.00
2022-08-05T01:26:02.816Z,3.10
2022-08-05T01:27:17.635Z,3.40
2022-08-05T01:28:03.787Z,2.80
2022-08-05T01:29:05.100Z,3.80
2022-08-05T01:30:02.776Z,3.00
2022-08-05T01:31:02.975Z,3.60
2022-08-05T01:32:02.812Z,3.40
2022-08-05T01:33:02.746Z,3.20
2022-08-05T01:34:02.748Z,3.10
2022-08-05T01:35:02.731Z,3.30
2022-08-05T01:36:03.719Z,2.90
2022-08-05T01:37:02.733Z,3.30
2022-08-05T01:38:02.699Z,3.30
2022-08-05T01:39:02.834Z,3.20
2022-08-05T01:40:02.743Z,3.20
2022-08-05T01:41:02.665Z,3.00
2022-08-05T01:42:02.670Z,3.20
2022-08-05T01:43:02.670Z,3.30
2022-08-05T01:44:02.809Z,3.50
2022-08-05T01:45:03.238Z,3.10
2022-08-05T01:46:07.423Z,3.20
2022-08-05T01:47:05.226Z,3.60
2022-08-05T01:48:02.593Z,3.40
2022-08-05T01:49:02.609Z,3.00
2022-08-05T01:50:03.605Z,3.20
2022-08-05T01:51:12.054Z,3.40
2022-08-05T01:52:17.448Z,3.50
2022-08-05T01:53:03.890Z,3.60
2022-08-05T01:54:02.540Z,3.40
2022-08-05T01:55:02.533Z,3.50
2022-08-05T01:56:04.323Z,3.90
2022-08-05T01:58:10.552Z,4.00
2022-08-05T01:58:12.657Z,3.90
2022-08-05T01:59:03.492Z,4.60
2022-08-05T02:00:02.490Z,4.40
2022-08-05T02:01:02.486Z,4.30
2022-08-05T02:02:02.508Z,4.00
2022-08-05T02:03:03.673Z,4.30
2022-08-05T02:04:02.439Z,4.40
2022-08-05T02:05:03.234Z,4.70
2022-08-05T02:06:03.560Z,4.10
2022-08-05T02:07:03.581Z,4.60
2022-08-05T02:08:02.445Z,4.20
2022-08-05T02:09:02.394Z,4.00
2022-08-05T02:10:02.405Z,4.20
2022-08-05T02:11:02.395Z,4.10
2022-08-05T02:12:02.370Z,4.30
2022-08-05T02:13:02.375Z,4.50
2022-08-05T02:14:02.373Z,4.30
2022-08-05T02:15:03.082Z,4.00
2022-08-05T02:16:02.321Z,4.10
2022-08-05T02:17:02.341Z,3.60
2022-08-05T02:18:32.276Z,3.80
2022-08-05T02:19:07.225Z,3.80
2022-08-05T02:20:02.290Z,3.90
2022-08-05T02:21:02.269Z,3.60
2022-08-05T02:22:02.312Z,3.60
2022-08-05T02:23:02.257Z,3.90
2022-08-05T02:24:02.257Z,3.60
2022-08-05T02:25:02.269Z,3.70
2022-08-05T02:26:02.228Z,3.90
2022-08-05T02:27:09.913Z,3.50
2022-08-05T02:28:08.670Z,4.00
2022-08-05T02:29:04.022Z,4.00
2022-08-05T02:30:02.191Z,4.60
2022-08-05T02:31:02.196Z,4.80
2022-08-05T02:32:04.728Z,5.50
2022-08-05T02:33:02.159Z,6.50
2022-08-05T02:34:02.151Z,6.40
2022-08-05T02:35:13.570Z,6.90
2022-08-05T02:36:03.134Z,7.00
2022-08-05T02:37:02.151Z,7.40
2022-08-05T02:38:02.278Z,7.50
2022-08-05T02:39:02.245Z,6.70
2022-08-05T02:40:02.101Z,6.40
2022-08-05T02:41:14.502Z,6.70
2022-08-05T02:42:03.095Z,7.10
2022-08-05T02:43:02.072Z,6.60
2022-08-05T02:44:06.965Z,6.60
2022-08-05T02:45:02.047Z,6.40
2022-08-05T02:46:02.039Z,6.50
2022-08-05T02:47:02.074Z,6.10
2022-08-05T02:48:11.828Z,7.20
2022-08-05T02:49:03.006Z,6.50
2022-08-05T02:50:01.998Z,6.80
2022-08-05T02:51:02.023Z,6.50
2022-08-05T02:52:03.665Z,7.00
2022-08-05T02:53:01.969Z,7.40
2022-08-05T02:54:03.965Z,7.80
2022-08-05T02:55:05.541Z,7.60
2022-08-05T02:56:02.062Z,7.80
2022-08-05T02:57:01.928Z,8.40
2022-08-05T02:58:11.988Z,8.40
2022-08-05T02:59:02.911Z,7.50
2022-08-05T03:00:01.907Z,8.00
2022-08-05T03:01:02.280Z,8.10
2022-08-05T03:02:01.954Z,7.80
2022-08-05T03:03:01.869Z,8.30
2022-08-05T03:04:12.102Z,9.40
2022-08-05T03:05:02.961Z,8.60
2022-08-05T03:06:54.541Z,8.70
2022-08-05T03:07:02.853Z,8.80
2022-08-05T03:08:06.796Z,8.10
2022-08-05T03:09:03.810Z,7.40
2022-08-05T03:10:02.147Z,7.60
2022-08-05T03:11:55.114Z,7.10
2022-08-05T03:12:02.804Z,7.00
2022-08-05T03:13:52.019Z,8.40
2022-08-05T03:14:48.154Z,8.70
2022-08-05T03:15:48.181Z,7.90
2022-08-05T03:16:48.148Z,8.40
2022-08-05T03:17:48.143Z,7.40
2022-08-05T03:18:49.131Z,8.40
2022-08-05T03:19:48.134Z,9.10
2022-08-05T03:20:48.970Z,9.90
2022-08-05T03:21:49.364Z,10.10
2022-08-05T03:22:50.021Z,9.90
2022-08-05T03:23:48.088Z,10.90
2022-08-05T03:24:50.753Z,9.50
2022-08-05T03:26:04.321Z,10.00
2022-08-05T03:26:49.453Z,10.20
2022-08-05T03:27:58.973Z,10.40
2022-08-05T03:28:49.034Z,9.60
2022-08-05T03:30:07.505Z,9.10
2022-08-05T03:30:49.001Z,9.00
2022-08-05T03:31:57.294Z,8.40
2022-08-05T03:32:48.979Z,8.50
2022-08-05T03:33:52.760Z,7.80
2022-08-05T03:34:51.047Z,8.60
2022-08-05T03:35:47.955Z,7.90
2022-08-05T03:36:47.948Z,8.20
2022-08-05T03:37:47.960Z,7.70
2022-08-05T03:38:52.545Z,7.70
2022-08-05T03:40:00.971Z,8.20
2022-08-05T03:40:49.001Z,7.60
2022-08-05T03:41:47.881Z,7.40
2022-08-05T03:42:51.687Z,7.50
2022-08-05T03:44:10.043Z,7.20
2022-08-05T03:44:48.876Z,7.00
2022-08-05T03:45:57.254Z,7.20
2022-08-05T03:46:47.883Z,7.30
2022-08-05T03:47:47.857Z,7.40
2022-08-05T03:48:47.834Z,7.50
2022-08-05T03:49:51.375Z,8.00
2022-08-05T03:50:47.806Z,7.80
2022-08-05T03:52:36.555Z,7.90
2022-08-05T03:55:50.833Z,8.30
2022-08-05T03:55:52.188Z,8.40
2022-08-05T03:55:53.788Z,8.50
2022-08-05T03:56:04.360Z,8.20
2022-08-05T03:56:50.043Z,8.10
2022-08-05T03:57:48.068Z,8.40
2022-08-05T03:58:47.726Z,7.40
2022-08-05T03:59:54.900Z,7.80
2022-08-05T04:00:51.364Z,8.80
2022-08-05T04:01:47.735Z,8.90
2022-08-05T04:02:51.976Z,8.80
2022-08-05T04:04:09.098Z,7.90
2022-08-05T04:04:48.696Z,8.20
2022-08-05T04:05:47.656Z,7.70
2022-08-05T04:06:51.356Z,7.60
2022-08-05T04:07:57.232Z,7.70
2022-08-05T04:08:48.676Z,7.10
2022-08-05T04:09:53.019Z,6.80
2022-08-05T04:10:48.619Z,8.60
2022-08-05T04:11:52.324Z,8.50
2022-08-05T04:12:47.605Z,9.70
2022-08-05T04:13:49.692Z,9.70
2022-08-05T04:14:47.587Z,8.50
2022-08-05T04:16:02.936Z,8.80
2022-08-05T04:16:48.576Z,8.80
2022-08-05T04:17:56.307Z,9.40
2022-08-05T04:18:48.539Z,8.80
2022-08-05T04:19:54.536Z,9.30
2022-08-05T04:20:48.523Z,8.60
2022-08-05T04:22:09.086Z,9.40
2022-08-05T04:22:48.501Z,8.70
2022-08-05T04:24:05.185Z,8.70
2022-08-05T04:24:52.932Z,9.40
2022-08-05T04:26:00.399Z,8.90
2022-08-05T04:26:48.451Z,8.20
2022-08-05T04:27:56.840Z,9.00
2022-08-05T04:28:51.210Z,8.60
2022-08-05T04:29:47.418Z,9.40
2022-08-05T04:30:48.010Z,9.50
2022-08-05T04:31:48.516Z,9.00
2022-08-05T04:32:47.430Z,10.00
2022-08-05T04:34:19.082Z,9.60
2022-08-05T04:34:48.368Z,9.50
2022-08-05T04:36:16.715Z,9.20
2022-08-05T04:36:50.231Z,9.70
2022-08-05T04:38:01.124Z,9.00
2022-08-05T04:38:50.958Z,8.50
2022-08-05T04:39:52.910Z,9.20
2022-08-05T04:40:50.621Z,11.10
2022-08-05T04:41:48.237Z,11.70
2022-08-05T04:42:47.344Z,11.70
2022-08-05T04:43:51.987Z,11.40
2022-08-05T04:44:48.279Z,11.90
2022-08-05T04:45:48.878Z,11.40
2022-08-05T04:46:47.249Z,10.90
2022-08-05T04:47:47.375Z,10.90
2022-08-05T04:48:47.260Z,10.90
2022-08-05T04:50:02.907Z,10.50
2022-08-05T04:51:02.887Z,11.10
2022-08-05T04:51:48.200Z,11.10
2022-08-05T04:52:47.206Z,11.50
2022-08-05T04:53:47.198Z,10.80
2022-08-05T04:54:47.190Z,11.10
2022-08-05T04:56:15.345Z,11.00
2022-08-05T04:56:48.170Z,11.60
2022-08-05T04:57:47.684Z,10.30
2022-08-05T04:58:48.128Z,9.60
2022-08-05T04:59:48.025Z,11.60
2022-08-05T05:00:47.164Z,9.30
2022-08-05T05:02:07.816Z,9.60
2022-08-05T05:02:48.109Z,9.40
2022-08-05T05:03:47.094Z,11.10
2022-08-05T05:04:49.909Z,10.90
2022-08-05T05:06:39.292Z,11.40
2022-08-05T05:06:49.280Z,11.70
2022-08-05T05:07:56.053Z,11.40
2022-08-05T05:08:49.923Z,11.20
2022-08-05T05:09:47.028Z,11.20
2022-08-05T05:10:55.848Z,11.30
2022-08-05T05:11:53.041Z,12.70
2022-08-05T05:12:48.008Z,14.30
2022-08-05T05:13:46.976Z,11.80
2022-08-05T05:14:50.635Z,12.30
2022-08-05T05:15:57.577Z,11.40
2022-08-05T05:16:47.984Z,10.90
2022-08-05T05:17:56.511Z,11.10
2022-08-05T05:19:02.739Z,10.70
2022-08-05T05:19:47.929Z,13.90
2022-08-05T05:20:46.927Z,11.70
2022-08-05T05:21:46.893Z,11.50
2022-08-05T05:22:46.914Z,9.90
2022-08-05T05:24:04.075Z,9.50
2022-08-05T05:24:56.822Z,9.60
2022-08-05T05:25:47.953Z,9.10
2022-08-05T05:26:46.854Z,10.30
2022-08-05T05:27:48.758Z,10.20
2022-08-05T05:28:47.861Z,10.70
2022-08-05T05:30:04.847Z,11.70
2022-08-05T05:30:49.729Z,11.10
2022-08-05T05:31:46.794Z,10.90
2022-08-05T05:32:46.807Z,9.90
2022-08-05T05:33:59.182Z,10.90
2022-08-05T05:34:47.766Z,11.80
2022-08-05T05:35:47.379Z,12.30
2022-08-05T05:36:47.189Z,11.40
2022-08-05T05:37:59.954Z,11.40
2022-08-05T05:38:47.770Z,11.70
2022-08-05T05:39:46.729Z,11.20
2022-08-05T05:40:50.099Z,12.50
2022-08-05T05:41:54.083Z,11.30
2022-08-05T05:42:48.680Z,11.40
2022-08-05T05:43:57.450Z,13.00
2022-08-05T05:44:47.695Z,12.10
2022-08-05T05:45:48.425Z,11.90
2022-08-05T05:46:46.654Z,11.60
2022-08-05T05:48:06.501Z,11.40
2022-08-05T05:48:47.778Z,12.90
2022-08-05T05:49:46.615Z,12.60
2022-08-05T05:50:47.664Z,13.80
2022-08-05T05:51:49.997Z,10.80
2022-08-05T05:52:46.677Z,11.90
2022-08-05T05:53:57.996Z,12.60
2022-08-05T05:54:50.920Z,12.00
2022-08-05T05:55:51.571Z,12.80
2022-08-05T05:56:47.587Z,11.90
2022-08-05T05:57:52.691Z,13.00
2022-08-05T05:58:46.523Z,12.80
2022-08-05T05:59:46.508Z,13.60
2022-08-05T06:00:46.594Z,12.60
2022-08-05T06:01:57.534Z,13.20
2022-08-05T06:02:47.481Z,13.90
2022-08-05T06:04:00.648Z,13.60
2022-08-05T06:04:49.168Z,14.20
2022-08-05T06:05:46.458Z,13.70
2022-08-05T06:06:49.149Z,12.90
2022-08-05T06:08:01.378Z,12.70
2022-08-05T06:08:49.220Z,13.10
2022-08-05T06:10:00.084Z,12.50
2022-08-05T06:10:52.642Z,12.00
2022-08-05T06:11:59.645Z,12.50
2022-08-05T06:12:47.387Z,12.30
2022-08-05T06:13:53.632Z,12.70
2022-08-05T06:14:46.367Z,13.20
2022-08-05T06:16:31.066Z,12.20
2022-08-05T06:16:47.349Z,13.20
2022-08-05T06:17:52.950Z,12.30
2022-08-05T06:18:46.340Z,12.40
2022-08-05T06:19:57.015Z,12.50
2022-08-05T06:20:47.874Z,12.90
2022-08-05T06:21:49.933Z,11.90
2022-08-05T06:22:47.313Z,12.20
2022-08-05T06:23:46.294Z,10.60
2022-08-05T06:24:48.269Z,11.20
2022-08-05T06:26:12.763Z,11.60
2022-08-05T06:26:52.361Z,12.30
2022-08-05T06:28:11.537Z,11.20
2022-08-05T06:28:46.231Z,12.10
2022-08-05T06:30:57.373Z,9.20
2022-08-05T06:31:57.403Z,9.50
2022-08-05T06:32:57.373Z,9.00
2022-08-05T06:34:06.289Z,9.00
2022-08-05T06:34:57.389Z,8.90
2022-08-05T06:36:07.748Z,8.50
2022-08-05T06:36:58.855Z,8.80
2022-08-05T06:37:59.554Z,9.10
2022-08-05T06:38:58.471Z,9.50
2022-08-05T06:39:58.416Z,9.40
2022-08-05T06:40:58.415Z,9.70
2022-08-05T06:41:58.891Z,9.40
2022-08-05T06:42:58.395Z,9.30
2022-08-05T06:44:00.634Z,9.30
2022-08-05T06:44:58.369Z,9.00
2022-08-05T06:46:04.083Z,8.20
2022-08-05T06:46:59.372Z,8.30
2022-08-05T06:48:44.358Z,8.00
2022-08-05T06:48:59.250Z,8.00
2022-08-05T06:50:00.807Z,7.60
2022-08-05T06:50:58.326Z,7.70
2022-08-05T06:51:58.306Z,6.60
2022-08-05T06:52:58.762Z,6.70
2022-08-05T06:53:59.300Z,6.40
2022-08-05T06:54:58.288Z,6.20
2022-08-05T06:55:58.277Z,5.80
2022-08-05T06:57:58.043Z,6.30
2022-08-05T06:58:11.660Z,6.00
2022-08-05T06:58:58.256Z,6.40
2022-08-05T06:59:58.399Z,6.60
2022-08-05T07:00:59.291Z,5.80
2022-08-05T07:01:58.208Z,6.00
2022-08-05T07:02:58.201Z,6.30
2022-08-05T07:03:58.195Z,6.50
2022-08-05T07:04:58.206Z,7.60
2022-08-05T07:05:58.183Z,6.10
2022-08-05T07:06:58.218Z,5.90
2022-08-05T07:07:58.165Z,6.30
2022-08-05T07:08:59.044Z,6.00
2022-08-05T07:09:58.576Z,5.50
2022-08-05T07:10:58.134Z,5.00
2022-08-05T07:12:00.489Z,5.30
2022-08-05T07:12:58.115Z,5.10
2022-08-05T07:13:59.735Z,5.50
2022-08-05T07:14:58.112Z,5.30
2022-08-05T07:16:01.623Z,5.50
2022-08-05T07:17:56.580Z,5.00
2022-08-05T07:18:08.303Z,5.20
2022-08-05T07:19:00.071Z,4.70
2022-08-05T07:20:31.277Z,5.00
2022-08-05T07:21:04.849Z,5.00
2022-08-05T07:22:00.479Z,5.10
2022-08-05T07:22:58.021Z,5.20
2022-08-05T07:23:58.022Z,4.70
2022-08-05T07:24:58.024Z,5.40
2022-08-05T07:25:57.996Z,5.50
2022-08-05T07:26:58.002Z,4.90
2022-08-05T07:28:03.932Z,5.30
2022-08-05T07:28:59.960Z,4.90
2022-08-05T07:30:24.043Z,5.70
2022-08-05T07:30:58.946Z,5.30
2022-08-05T07:31:57.930Z,5.40
2022-08-05T07:32:57.997Z,5.30
2022-08-05T07:33:59.839Z,4.90
2022-08-05T07:34:58.691Z,5.50
2022-08-05T07:36:19.356Z,5.40
2022-08-05T07:36:58.882Z,5.70
2022-08-05T07:37:57.901Z,5.40
2022-08-05T07:38:57.887Z,5.50
2022-08-05T07:40:27.027Z,5.70
2022-08-05T07:41:00.399Z,5.50
2022-08-05T07:42:14.609Z,5.80
2022-08-05T07:42:58.858Z,5.40
2022-08-05T07:43:57.826Z,5.60
2022-08-05T07:44:57.813Z,5.00
2022-08-05T07:45:58.741Z,5.40
2022-08-05T07:46:58.791Z,5.80
2022-08-05T07:47:57.788Z,5.20
2022-08-05T07:49:01.679Z,5.10
2022-08-05T07:49:58.765Z,5.10
2022-08-05T07:50:57.760Z,4.90
2022-08-05T07:51:57.763Z,4.90
2022-08-05T07:52:57.737Z,5.30
2022-08-05T07:53:57.742Z,5.40
2022-08-05T07:54:57.717Z,4.90
2022-08-05T07:56:06.412Z,4.90
2022-08-05T07:57:13.575Z,5.30
2022-08-05T07:58:03.171Z,5.30
2022-08-05T07:58:59.229Z,5.80
2022-08-05T07:59:57.687Z,5.80
2022-08-05T08:00:57.687Z,5.70
2022-08-05T08:01:58.011Z,5.40
2022-08-05T08:03:15.088Z,5.80
2022-08-05T08:03:58.628Z,6.10
2022-08-05T08:04:57.654Z,5.70
2022-08-05T08:05:57.605Z,5.30
2022-08-05T08:06:57.603Z,5.80
2022-08-05T08:08:00.256Z,5.70
2022-08-05T08:08:57.582Z,5.50
2022-08-05T08:09:57.574Z,5.70
2022-08-05T08:10:57.572Z,6.40
2022-08-05T08:12:00.095Z,5.60
2022-08-05T08:12:58.532Z,6.00
2022-08-05T08:14:00.775Z,5.70
2022-08-05T08:14:57.534Z,6.20
2022-08-05T08:16:34.569Z,5.80
2022-08-05T08:16:58.508Z,6.00
2022-08-05T08:17:57.524Z,5.80
2022-08-05T08:18:57.492Z,6.00
2022-08-05T08:20:21.994Z,5.80
2022-08-05T08:21:02.872Z,5.80
2022-08-05T08:21:58.470Z,6.00
2022-08-05T08:22:57.467Z,6.00
2022-08-05T08:24:03.843Z,6.10
2022-08-05T08:25:03.385Z,5.90
2022-08-05T08:26:00.698Z,6.70
2022-08-05T08:26:58.416Z,6.00
2022-08-05T08:27:57.410Z,6.40
2022-08-05T08:29:02.261Z,6.20
2022-08-05T08:30:04.021Z,6.50
2022-08-05T08:30:58.397Z,6.60
2022-08-05T08:31:57.366Z,6.80
2022-08-05T08:32:57.368Z,6.60
2022-08-05T08:33:57.399Z,6.70
2022-08-05T08:34:57.333Z,6.20
2022-08-05T08:36:18.399Z,6.20
2022-08-05T08:37:04.572Z,5.90
2022-08-05T08:37:59.311Z,5.90
2022-08-05T08:38:57.562Z,6.20
2022-08-05T08:39:57.345Z,5.80
2022-08-05T08:40:57.312Z,5.80
2022-08-05T08:41:59.964Z,5.50
2022-08-05T08:42:57.409Z,5.70
2022-08-05T08:45:18.193Z,5.50
2022-08-05T08:45:20.090Z,5.80
2022-08-05T08:45:58.261Z,5.40
2022-08-05T08:46:57.238Z,5.40
2022-08-05T08:48:06.805Z,5.60
2022-08-05T08:49:06.213Z,5.30
2022-08-05T08:50:22.509Z,5.40
2022-08-05T08:51:22.493Z,5.60
2022-08-05T08:52:03.820Z,5.80
2022-08-05T08:52:58.202Z,5.20
2022-08-05T08:53:57.166Z,4.90
2022-08-05T08:54:57.793Z,5.30
2022-08-05T08:56:02.813Z,5.40
2022-08-05T08:56:57.141Z,5.40
2022-08-05T08:57:57.958Z,5.50
2022-08-05T08:58:57.147Z,5.40
2022-08-05T08:59:57.097Z,5.30
2022-08-05T09:00:57.200Z,5.60
2022-08-05T09:02:01.135Z,5.40
2022-08-05T09:02:57.082Z,5.60
2022-08-05T09:03:58.322Z,5.30
2022-08-05T09:05:16.372Z,5.40
2022-08-05T09:06:08.881Z,5.10
2022-08-05T09:06:58.300Z,4.70
2022-08-05T09:07:59.052Z,4.60
2022-08-05T09:08:57.016Z,4.70
2022-08-05T09:09:57.056Z,4.60
2022-08-05T09:10:57.017Z,4.60
2022-08-05T09:12:02.259Z,4.70
2022-08-05T09:13:04.469Z,4.60
2022-08-05T09:14:09.570Z,4.50
2022-08-05T09:15:04.749Z,4.40
2022-08-05T09:15:56.964Z,4.20
2022-08-05T09:16:56.964Z,4.70
2022-08-05T09:17:56.961Z,4.70
2022-08-05T09:18:56.938Z,4.50
2022-08-05T09:20:02.927Z,4.30
2022-08-05T09:20:57.922Z,4.20
2022-08-05T09:22:22.226Z,4.70
2022-08-05T09:23:04.827Z,4.40
2022-08-05T09:24:02.092Z,4.50
2022-08-05T09:24:58.883Z,4.30
2022-08-05T09:26:00.091Z,4.70
2022-08-05T09:26:58.787Z,4.70
2022-08-05T09:28:04.599Z,4.80
2022-08-05T09:28:57.862Z,4.90
2022-08-05T09:29:56.832Z,4.30
2022-08-05T09:30:56.822Z,4.50
2022-08-05T09:32:40.407Z,4.80
2022-08-05T09:32:58.024Z,4.30
2022-08-05T09:33:56.816Z,4.40
2022-08-05T09:34:56.784Z,4.40
2022-08-05T09:35:56.774Z,4.20
2022-08-05T09:36:59.749Z,4.60
2022-08-05T09:38:12.808Z,4.30
2022-08-05T09:38:57.797Z,4.80
2022-08-05T09:39:56.823Z,4.50
2022-08-05T09:40:56.731Z,4.50
2022-08-05T09:41:56.737Z,4.10
2022-08-05T09:42:56.701Z,4.70
2022-08-05T09:43:56.700Z,5.10
2022-08-05T09:45:03.139Z,4.20
2022-08-05T09:46:06.225Z,4.40
2022-08-05T09:46:58.026Z,4.40
2022-08-05T09:47:57.441Z,4.20
2022-08-05T09:49:07.625Z,4.10
2022-08-05T09:50:01.973Z,4.20
2022-08-05T09:50:57.641Z,3.80
2022-08-05T09:51:56.653Z,4.10
2022-08-05T09:52:56.608Z,3.80
2022-08-05T09:53:59.143Z,4.00
2022-08-05T09:54:56.607Z,4.00
2022-08-05T09:56:04.808Z,4.10
2022-08-05T09:57:01.598Z,3.70
2022-08-05T09:57:58.646Z,4.10
2022-08-05T09:58:56.619Z,3.40
2022-08-05T09:59:56.554Z,3.90
2022-08-05T10:00:56.544Z,3.90
2022-08-05T10:01:58.402Z,3.90
2022-08-05T10:02:58.589Z,3.60
2022-08-05T10:03:59.545Z,3.40
2022-08-05T10:04:56.505Z,3.30
2022-08-05T10:05:56.525Z,3.60
2022-08-05T10:06:59.462Z,3.70
2022-08-05T10:08:36.660Z,3.30
2022-08-05T10:08:57.505Z,3.50
2022-08-05T10:10:04.335Z,3.50
2022-08-05T10:10:57.470Z,3.50
2022-08-05T10:11:56.444Z,3.40
2022-08-05T10:12:56.432Z,3.10
2022-08-05T10:13:56.464Z,3.20
2022-08-05T10:14:56.428Z,2.90
2022-08-05T10:15:56.426Z,2.70
2022-08-05T10:16:56.398Z,3.00
2022-08-05T10:17:56.751Z,3.20
2022-08-05T10:18:56.391Z,3.00
2022-08-05T10:20:04.208Z,3.00
2022-08-05T10:20:57.368Z,2.80
2022-08-05T10:21:56.346Z,3.20
2022-08-05T10:22:56.345Z,3.00
2022-08-05T10:24:00.406Z,3.20
2022-08-05T10:24:57.361Z,3.30
2022-08-05T10:25:56.328Z,3.00
2022-08-05T10:26:56.382Z,3.20
2022-08-05T10:28:13.705Z,3.10
2022-08-05T10:28:57.290Z,2.80
2022-08-05T10:30:07.195Z,3.30
2022-08-05T10:32:50.784Z,3.00
2022-08-05T10:32:55.166Z,3.00
2022-08-05T10:33:01.375Z,2.90
2022-08-05T10:33:57.245Z,3.00
2022-08-05T10:34:56.246Z,3.10
2022-08-05T10:35:59.740Z,3.00
2022-08-05T10:36:56.203Z,3.20
2022-08-05T10:37:56.208Z,3.00
2022-08-05T10:38:56.231Z,3.10
2022-08-05T10:40:03.865Z,3.10
2022-08-05T10:40:57.971Z,3.10
2022-08-05T10:42:00.548Z,3.20
2022-08-05T10:42:56.150Z,3.00
2022-08-05T10:43:56.161Z,3.20
2022-08-05T10:44:56.162Z,3.00
2022-08-05T10:45:56.133Z,3.30
2022-08-05T10:46:57.137Z,3.10
2022-08-05T10:48:30.327Z,2.70
2022-08-05T10:49:02.682Z,3.40
2022-08-05T10:50:20.258Z,3.40
2022-08-05T10:50:57.080Z,2.80
2022-08-05T10:52:00.119Z,3.20
2022-08-05T10:52:58.820Z,3.10
2022-08-05T10:53:56.055Z,2.90
2022-08-05T10:54:57.275Z,3.00
2022-08-05T10:56:05.287Z,3.00
2022-08-05T10:56:57.306Z,2.90
2022-08-05T10:57:56.019Z,2.90
2022-08-05T10:58:56.018Z,3.00
2022-08-05T11:00:01.790Z,3.20
2022-08-05T11:01:03.011Z,3.50
2022-08-05T11:02:05.261Z,3.30
2022-08-05T11:02:58.056Z,3.20
2022-08-05T11:03:55.997Z,3.10
2022-08-05T11:04:56.003Z,2.80
2022-08-05T11:05:55.962Z,2.90
2022-08-05T11:06:55.974Z,2.90
2022-08-05T11:08:02.618Z,3.00
2022-08-05T11:08:55.917Z,2.80
2022-08-05T11:10:03.679Z,2.90
2022-08-05T11:11:01.058Z,3.00
2022-08-05T11:11:55.921Z,2.80
2022-08-05T11:12:55.995Z,3.20
2022-08-05T11:13:58.309Z,3.00
2022-08-05T11:15:11.648Z,2.80
2022-08-05T11:16:00.961Z,2.90
2022-08-05T11:16:57.755Z,3.10
2022-08-05T11:17:57.083Z,3.00
2022-08-05T11:18:55.832Z,3.20
2022-08-05T11:20:10.612Z,2.90
2022-08-05T11:20:56.825Z,3.00
2022-08-05T11:21:55.793Z,3.00
2022-08-05T11:22:59.180Z,2.80
2022-08-05T11:24:05.500Z,3.00
2022-08-05T11:25:16.830Z,2.80
2022-08-05T11:26:04.711Z,3.00
2022-08-05T11:26:55.765Z,3.00
2022-08-05T11:28:00.800Z,3.30
2022-08-05T11:28:56.768Z,3.10
2022-08-05T11:29:55.738Z,3.40
2022-08-05T11:30:55.731Z,2.90
2022-08-05T11:32:00.050Z,3.10
2022-08-05T11:32:56.748Z,3.40
2022-08-05T11:33:55.829Z,3.00
2022-08-05T11:34:55.687Z,2.60
2022-08-05T11:36:07.521Z,3.10
2022-08-05T11:36:55.673Z,3.30
2022-08-05T11:38:30.136Z,3.20
2022-08-05T11:38:57.544Z,2.90
2022-08-05T11:40:02.859Z,3.30
2022-08-05T11:41:01.061Z,2.90
2022-08-05T11:42:04.240Z,3.00
2022-08-05T11:42:57.623Z,2.90
2022-08-05T11:44:04.320Z,2.80
2022-08-05T11:44:56.603Z,3.10
2022-08-05T11:46:14.948Z,3.00
2022-08-05T11:47:09.948Z,3.40
2022-08-05T11:47:56.580Z,3.20
2022-08-05T11:48:55.614Z,2.90
2022-08-05T11:49:55.574Z,2.90
2022-08-05T11:50:55.553Z,3.00
2022-08-05T11:51:57.296Z,3.10
2022-08-05T11:52:58.011Z,3.10
2022-08-05T11:53:56.512Z,2.90
2022-08-05T11:54:55.778Z,2.90
2022-08-05T11:55:55.495Z,2.90
2022-08-05T11:56:55.494Z,3.10
2022-08-05T11:58:09.615Z,2.80
2022-08-05T11:58:56.468Z,2.80
2022-08-05T11:59:55.462Z,2.80
2022-08-05T12:00:55.460Z,3.20
2022-08-05T12:01:55.458Z,3.10
2022-08-05T12:02:56.561Z,3.40
2022-08-05T12:03:55.838Z,3.00
2022-08-05T12:04:59.111Z,3.20
2022-08-05T12:05:55.414Z,2.70
2022-08-05T12:06:55.386Z,3.00
2022-08-05T12:08:08.341Z,3.20
2022-08-05T12:08:55.408Z,3.10
2022-08-05T12:09:55.378Z,3.10
2022-08-05T12:10:56.086Z,3.00
2022-08-05T12:11:55.364Z,3.10
2022-08-05T12:12:59.969Z,3.20
2022-08-05T12:13:55.355Z,2.90
2022-08-05T12:14:55.325Z,2.90
2022-08-05T12:15:55.850Z,3.30
2022-08-05T12:16:55.306Z,3.10
2022-08-05T12:18:03.694Z,3.10
2022-08-05T12:18:55.282Z,3.00
2022-08-05T12:20:16.671Z,3.30
2022-08-05T12:20:56.306Z,3.10
2022-08-05T12:21:55.260Z,3.30
2022-08-05T12:22:55.254Z,2.90
2022-08-05T12:23:55.254Z,2.90
2022-08-05T12:24:55.225Z,3.00
2022-08-05T12:25:56.895Z,3.10
2022-08-05T12:26:55.220Z,3.70
2022-08-05T12:27:55.195Z,3.30
2022-08-05T12:28:55.188Z,3.20
2022-08-05T12:29:56.961Z,3.30
2022-08-05T12:31:34.263Z,3.50
2022-08-05T12:31:55.466Z,3.20
2022-08-05T12:32:56.400Z,3.40
2022-08-05T12:33:55.209Z,3.40
2022-08-05T12:34:55.294Z,3.20
2022-08-05T12:35:55.199Z,3.30
2022-08-05T12:36:55.144Z,3.40
2022-08-05T12:37:55.615Z,3.30
2022-08-05T12:38:55.159Z,2.80
2022-08-05T12:39:55.169Z,3.20
2022-08-05T12:40:56.088Z,3.20
2022-08-05T12:41:58.028Z,3.40
2022-08-05T12:42:55.123Z,3.50
2022-08-05T12:43:55.059Z,3.50
2022-08-05T12:44:55.048Z,3.50
2022-08-05T12:45:55.044Z,3.10
2022-08-05T12:46:55.027Z,3.70
2022-08-05T12:48:01.408Z,3.60
2022-08-05T12:48:56.015Z,3.40
2022-08-05T12:50:03.508Z,3.60
2022-08-05T12:50:56.004Z,3.40
2022-08-05T12:52:14.006Z,3.40
2022-08-05T12:52:55.972Z,3.10
2022-08-05T12:53:55.887Z,3.40
2022-08-05T12:54:54.954Z,3.60
2022-08-05T12:55:54.940Z,3.40
2022-08-05T12:56:54.950Z,3.50
2022-08-05T12:58:38.717Z,3.50
2022-08-05T12:59:02.545Z,3.10
2022-08-05T13:01:58.516Z,3.40
2022-08-05T13:02:01.664Z,3.50
2022-08-05T13:02:03.099Z,3.70
2022-08-05T13:02:55.756Z,3.80
2022-08-05T13:03:54.854Z,3.90
2022-08-05T13:04:54.989Z,3.80
2022-08-05T13:05:54.886Z,3.70
2022-08-05T13:06:54.839Z,3.50
2022-08-05T13:07:59.241Z,4.00
2022-08-05T13:08:57.050Z,3.90
2022-08-05T13:09:57.037Z,3.80
2022-08-05T13:10:55.805Z,4.50
2022-08-05T13:12:02.738Z,3.70
2022-08-05T13:12:58.272Z,3.90
2022-08-05T13:14:04.723Z,3.80
2022-08-05T13:15:05.031Z,3.80
2022-08-05T13:15:55.770Z,4.00